Time;durP1;ratioP1;P1;durP2;ratioP2;P2;SDS_P1;SDS_P2;PMS_P1;PMS_P2;Temp;Humidity;BMP_temperature;BMP_pressure;BME280_temperature;BME280_humidity;BME280_pressure;Samples;Min_cycle;Max_cycle;Signal;HPM_P1;HPM_P2
2021/03/01 00:00:31;;;;;;;1.70;1.60;;;20.60;58.80;;;;;;5090974;28;20052;-33
2021/03/01 00:02:57;;;;;;;1.50;1.25;;;20.60;58.80;;;;;;5085021;28;20032;-34
2021/03/01 00:05:23;;;;;;;1.70;1.60;;;20.60;58.80;;;;;;5082265;28;20032;-34
2021/03/01 00:07:50;;;;;;;1.80;1.60;;;20.60;58.70;;;;;;5082083;28;20562;-34
2021/03/01 00:10:16;;;;;;;1.85;1.60;;;20.60;58.70;;;;;;5081796;28;20127;-33
2021/03/01 00:12:43;;;;;;;2.13;1.70;;;20.60;58.80;;;;;;5082266;28;20029;-34
2021/03/01 00:15:13;;;;;;;1.85;1.55;;;20.60;58.80;;;;;;5064078;28;20814;-34
2021/03/01 00:17:40;;;;;;;1.83;1.55;;;20.60;58.80;;;;;;5065571;28;20037;-34
2021/03/01 00:20:08;;;;;;;2.17;1.67;;;20.60;58.80;;;;;;5086108;28;20044;-33
2021/03/01 00:22:34;;;;;;;1.58;1.40;;;20.60;58.90;;;;;;5068476;28;20051;-34
2021/03/01 00:25:09;;;;;;;1.35;1.25;;;20.60;58.90;;;;;;5085274;28;20032;-33
2021/03/01 00:27:35;;;;;;;1.83;1.52;;;20.60;58.90;;;;;;5086220;28;20580;-33
2021/03/01 00:30:02;;;;;;;2.08;1.45;;;20.60;58.90;;;;;;5088639;28;20082;-34
2021/03/01 00:32:28;;;;;;;1.10;0.97;;;20.60;58.80;;;;;;5092889;28;20084;-34
2021/03/01 00:34:56;;;;;;;2.22;1.58;;;20.60;58.70;;;;;;5085691;28;20351;-34
2021/03/01 00:37:22;;;;;;;1.70;1.60;;;20.60;58.70;;;;;;5080326;28;20040;-33
2021/03/01 00:39:48;;;;;;;2.20;1.60;;;20.60;58.60;;;;;;5085333;28;20035;-34
2021/03/01 00:42:14;;;;;;;1.40;1.30;;;20.60;58.60;;;;;;5085870;28;20055;-34
2021/03/01 00:44:41;;;;;;;1.85;1.55;;;20.60;58.50;;;;;;5068002;28;20028;-33
2021/03/01 00:47:07;;;;;;;1.88;1.55;;;20.60;58.50;;;;;;5086051;28;20029;-34
2021/03/01 00:49:33;;;;;;;2.22;1.77;;;20.60;58.50;;;;;;5085472;28;20024;-34
2021/03/01 00:51:59;;;;;;;1.50;1.40;;;20.60;58.60;;;;;;5085671;28;20039;-33
2021/03/01 00:54:25;;;;;;;1.98;1.30;;;20.60;58.50;;;;;;5085650;28;20040;-34
2021/03/01 00:56:51;;;;;;;1.55;1.35;;;20.60;58.50;;;;;;5088069;28;20032;-34
2021/03/01 00:59:17;;;;;;;2.67;1.58;;;20.60;58.50;;;;;;5088021;28;20020;-34
2021/03/01 01:01:44;;;;;;;1.88;1.50;;;20.60;58.40;;;;;;5097176;28;20743;-34
2021/03/01 01:04:10;;;;;;;1.35;1.25;;;20.60;58.50;;;;;;5085180;28;20035;-34
2021/03/01 01:06:36;;;;;;;2.13;1.42;;;20.60;58.50;;;;;;5085445;28;20118;-33
2021/03/01 01:09:03;;;;;;;1.23;1.13;;;20.60;59.00;;;;;;5087240;28;20020;-34
2021/03/01 01:11:29;;;;;;;2.33;1.60;;;20.60;58.60;;;;;;5066924;28;20032;-33
2021/03/01 01:13:55;;;;;;;2.83;1.48;;;20.60;58.60;;;;;;5085340;28;20684;-34
2021/03/01 01:16:21;;;;;;;1.52;1.23;;;20.60;58.60;;;;;;5085196;28;20036;-33
2021/03/01 01:18:47;;;;;;;2.45;1.48;;;20.60;58.50;;;;;;5085016;28;20441;-34
2021/03/01 01:21:13;;;;;;;1.50;1.40;;;20.50;58.40;;;;;;5084983;28;20032;-34
2021/03/01 01:23:40;;;;;;;1.98;1.40;;;20.50;58.50;;;;;;5085248;28;20498;-33
2021/03/01 01:26:06;;;;;;;1.70;1.40;;;20.50;58.50;;;;;;5084941;28;20058;-34
2021/03/01 01:28:32;;;;;;;1.30;1.20;;;20.50;58.50;;;;;;5084636;28;20710;-33
2021/03/01 01:30:58;;;;;;;1.98;1.25;;;20.50;58.60;;;;;;5096399;28;20032;-33
2021/03/01 01:33:24;;;;;;;1.50;1.40;;;20.50;58.40;;;;;;5084900;28;20025;-34
2021/03/01 01:35:50;;;;;;;1.58;1.10;;;20.50;58.30;;;;;;5085134;28;20037;-34
2021/03/01 01:38:17;;;;;;;1.25;1.15;;;20.50;58.30;;;;;;5081041;28;20042;-34
2021/03/01 01:40:43;;;;;;;1.50;1.35;;;20.40;58.30;;;;;;5075601;28;20024;-34
2021/03/01 01:43:09;;;;;;;1.58;1.17;;;20.40;58.30;;;;;;5084907;28;20035;-33
2021/03/01 01:45:35;;;;;;;1.63;1.40;;;20.40;58.30;;;;;;5084945;28;20123;-33
2021/03/01 01:48:01;;;;;;;2.08;1.40;;;20.40;58.30;;;;;;5084727;28;20055;-34
2021/03/01 01:50:28;;;;;;;1.50;1.33;;;20.40;58.30;;;;;;5084297;28;20051;-34
2021/03/01 01:52:57;;;;;;;1.85;1.20;;;20.40;58.40;;;;;;5084757;28;20036;-33
2021/03/01 01:55:24;;;;;;;1.85;1.50;;;20.40;58.40;;;;;;5066404;28;20028;-34
2021/03/01 01:57:50;;;;;;;1.58;1.40;;;20.40;58.30;;;;;;5066940;28;20091;-34
2021/03/01 02:03:27;;;;;;;1.88;1.30;;;20.40;58.40;;;;;;5085678;28;20032;-33
2021/03/01 02:05:54;;;;;;;1.90;1.40;;;20.40;58.40;;;;;;5084494;28;20032;-33
2021/03/01 02:08:43;;;;;;;1.73;1.20;;;20.30;58.40;;;;;;5049982;28;20047;-34
2021/03/01 02:11:19;;;;;;;1.52;1.40;;;20.30;58.30;;;;;;5054857;28;20143;-34
2021/03/01 02:14:02;;;;;;;2.10;1.20;;;20.30;58.30;;;;;;5066533;28;20108;-33
2021/03/01 02:16:33;;;;;;;2.47;1.30;;;20.30;58.40;;;;;;5066279;28;20080;-34
2021/03/01 02:19:00;;;;;;;1.30;1.20;;;20.30;58.30;;;;;;5067005;28;20060;-33
2021/03/01 02:21:26;;;;;;;1.75;1.35;;;20.30;58.30;;;;;;5083681;28;20056;-33
2021/03/01 02:23:52;;;;;;;1.42;1.20;;;20.30;58.30;;;;;;5084150;28;20062;-33
2021/03/01 02:26:22;;;;;;;2.72;1.73;;;20.30;58.40;;;;;;5083999;28;20092;-33
2021/03/01 02:28:50;;;;;;;1.92;1.40;;;20.30;58.30;;;;;;5066208;28;20122;-34
2021/03/01 02:31:17;;;;;;;1.95;1.30;;;20.30;58.30;;;;;;5077450;28;20378;-33
2021/03/01 02:33:49;;;;;;;4.22;1.23;;;20.20;58.20;;;;;;5066023;28;20016;-34
2021/03/01 02:36:19;;;;;;;1.20;1.00;;;20.20;58.20;;;;;;5059700;28;20095;-33
2021/03/01 02:38:46;;;;;;;1.60;1.20;;;20.20;58.40;;;;;;5049747;28;20044;-34
2021/03/01 02:41:12;;;;;;;2.30;1.58;;;20.20;58.40;;;;;;5064650;28;20025;-33
2021/03/01 02:43:39;;;;;;;1.20;1.10;;;20.20;58.50;;;;;;5049254;28;20031;-34
2021/03/01 02:46:07;;;;;;;1.58;1.15;;;20.20;58.60;;;;;;5065568;28;20478;-34
2021/03/01 02:48:34;;;;;;;2.47;1.58;;;20.20;58.60;;;;;;5066077;28;20037;-33
2021/03/01 02:51:00;;;;;;;2.05;1.15;;;20.20;58.70;;;;;;5050905;28;20039;-34
2021/03/01 02:53:26;;;;;;;2.20;1.30;;;20.10;58.70;;;;;;5049126;28;20681;-33
2021/03/01 02:55:53;;;;;;;2.00;1.40;;;20.10;58.70;;;;;;5065394;28;20036;-33
2021/03/01 02:58:19;;;;;;;2.78;1.48;;;20.10;58.80;;;;;;5083505;28;20024;-33
2021/03/01 03:00:45;;;;;;;1.95;1.50;;;20.10;58.80;;;;;;5059686;28;20098;-33
2021/03/01 03:03:12;;;;;;;2.13;1.20;;;20.10;58.90;;;;;;5049372;28;20634;-33
2021/03/01 03:05:39;;;;;;;2.17;1.10;;;20.10;58.90;;;;;;5084510;28;20028;-33
2021/03/01 03:08:05;;;;;;;;;;;20.10;58.90;;;;;;5088359;28;20473;-34
2021/03/01 03:10:31;;;;;;;2.28;1.42;;;20.00;58.90;;;;;;5064882;28;19955;-33
2021/03/01 03:12:58;;;;;;;1.90;1.30;;;20.00;58.90;;;;;;5065268;28;20024;-33
2021/03/01 03:15:24;;;;;;;2.03;1.58;;;20.00;58.90;;;;;;5083195;28;20048;-33
2021/03/01 03:17:50;;;;;;;2.58;1.50;;;20.00;59.00;;;;;;5048529;28;20024;-33
2021/03/01 03:20:16;;;;;;;1.63;1.23;;;20.00;58.90;;;;;;5065160;28;20048;-34
2021/03/01 03:22:42;;;;;;;1.20;1.05;;;20.00;58.90;;;;;;5082862;28;20032;-33
2021/03/01 03:25:10;;;;;;;1.92;1.33;;;20.00;58.90;;;;;;5065108;28;20024;-33
2021/03/01 03:27:36;;;;;;;1.77;1.30;;;20.00;58.80;;;;;;5082920;28;20031;-33
2021/03/01 03:30:10;;;;;;;1.42;1.20;;;20.00;58.80;;;;;;5082993;28;20032;-33
2021/03/01 03:32:37;;;;;;;2.30;1.50;;;19.90;58.70;;;;;;5068026;28;20093;-34
2021/03/01 03:35:05;;;;;;;1.45;1.13;;;19.90;58.60;;;;;;5044886;28;20089;-35
2021/03/01 03:37:42;;;;;;;2.08;1.27;;;19.90;58.60;;;;;;5062866;28;20041;-35
2021/03/01 03:40:09;;;;;;;2.63;1.40;;;19.90;58.60;;;;;;5029322;28;20823;-35
2021/03/01 03:42:35;;;;;;;2.00;1.23;;;19.90;58.70;;;;;;5044742;28;20032;-35
2021/03/01 03:45:01;;;;;;;4.93;1.48;;;19.90;58.90;;;;;;5035854;28;20114;-35
2021/03/01 03:47:27;;;;;;;1.38;1.20;;;19.90;58.90;;;;;;5082741;28;20032;-35
2021/03/01 03:49:55;;;;;;;1.25;1.10;;;19.80;58.90;;;;;;5064674;28;20045;-35
2021/03/01 03:52:23;;;;;;;3.00;1.52;;;19.80;58.80;;;;;;5064701;28;20024;-35
2021/03/01 03:54:49;;;;;;;1.88;1.17;;;19.80;58.80;;;;;;5048165;28;20504;-40
2021/03/01 03:57:20;;;;;;;1.77;1.25;;;19.80;59.00;;;;;;5064836;28;20087;-33
2021/03/01 03:59:46;;;;;;;1.80;1.20;;;19.80;58.90;;;;;;5072991;28;20017;-34
2021/03/01 04:02:13;;;;;;;1.52;1.30;;;19.80;58.90;;;;;;5067929;28;20028;-33
2021/03/01 04:04:39;;;;;;;1.58;1.20;;;19.80;58.90;;;;;;5050029;28;20047;-34
2021/03/01 04:07:06;;;;;;;1.23;1.10;;;19.80;58.80;;;;;;5061159;28;20083;-33
2021/03/01 04:09:32;;;;;;;1.92;1.20;;;19.80;58.70;;;;;;5060885;28;20033;-33
2021/03/01 04:11:58;;;;;;;1.85;1.48;;;19.70;59.10;;;;;;5061309;28;20064;-34
2021/03/01 04:14:25;;;;;;;2.78;1.40;;;19.70;58.50;;;;;;5061090;28;20028;-33
2021/03/01 04:16:58;;;;;;;1.23;1.05;;;19.70;58.40;;;;;;5061420;28;20047;-35
2021/03/01 04:19:26;;;;;;;1.92;1.20;;;19.70;58.30;;;;;;5061117;28;20021;-33
2021/03/01 04:21:55;;;;;;;1.60;1.20;;;19.70;58.30;;;;;;5061179;28;20033;-36
2021/03/01 04:24:21;;;;;;;1.60;1.40;;;19.70;58.30;;;;;;5061000;28;20055;-33
2021/03/01 04:26:47;;;;;;;1.67;1.10;;;19.70;58.20;;;;;;5061142;28;20033;-35
2021/03/01 04:29:14;;;;;;;1.58;1.27;;;19.70;58.30;;;;;;5062365;28;20067;-35
2021/03/01 04:31:40;;;;;;;1.83;1.20;;;19.70;58.30;;;;;;5037606;28;20037;-33
2021/03/01 04:34:06;;;;;;;1.50;1.20;;;19.70;58.40;;;;;;5037952;28;20513;-33
2021/03/01 04:36:32;;;;;;;1.73;1.20;;;19.60;58.30;;;;;;5037074;28;20029;-34
2021/03/01 04:38:58;;;;;;;1.80;1.25;;;19.60;58.90;;;;;;5041124;28;20025;-35
2021/03/01 04:41:24;;;;;;;1.50;1.10;;;19.60;58.40;;;;;;5040657;28;20055;-36
2021/03/01 04:43:50;;;;;;;2.05;1.35;;;19.60;58.40;;;;;;5041201;28;20029;-34
2021/03/01 04:46:17;;;;;;;1.75;1.17;;;19.60;58.40;;;;;;5041120;28;20017;-33
2021/03/01 04:48:43;;;;;;;2.00;1.37;;;19.60;58.50;;;;;;5041076;28;20034;-34
2021/03/01 04:51:09;;;;;;;2.03;1.17;;;19.60;58.40;;;;;;5040666;28;20037;-35
2021/03/01 04:53:36;;;;;;;1.40;1.30;;;19.50;58.40;;;;;;5063426;28;20091;-35
2021/03/01 04:56:06;;;;;;;1.45;1.10;;;19.50;58.40;;;;;;5062294;28;20040;-34
2021/03/01 04:58:34;;;;;;;1.60;1.15;;;19.50;58.30;;;;;;5060850;28;20029;-36
2021/03/01 05:01:01;;;;;;;1.77;1.10;;;19.50;58.30;;;;;;5072415;28;20032;-35
2021/03/01 05:03:29;;;;;;;1.15;1.05;;;19.50;58.30;;;;;;5053219;28;20034;-35
2021/03/01 05:05:57;;;;;;;;;;;19.50;58.20;;;;;;5080096;28;20035;-35
2021/03/01 05:08:23;;;;;;;1.40;1.30;;;19.50;58.70;;;;;;5085912;28;19921;-35
2021/03/01 05:10:49;;;;;;;1.40;1.10;;;19.50;58.10;;;;;;5083951;28;20811;-34
2021/03/01 05:13:21;;;;;;;2.20;1.10;;;19.40;58.00;;;;;;5085888;28;20036;-35
2021/03/01 05:15:47;;;;;;;2.20;1.38;;;19.40;58.10;;;;;;5071527;28;20052;-35
2021/03/01 05:18:13;;;;;;;1.10;1.00;;;19.40;58.10;;;;;;5065720;28;20017;-35
2021/03/01 05:20:40;;;;;;;2.47;1.40;;;19.40;58.20;;;;;;5064146;28;20043;-35
2021/03/01 05:23:06;;;;;;;1.70;1.00;;;19.40;58.10;;;;;;5064336;28;20025;-34
2021/03/01 05:25:32;;;;;;;2.40;1.33;;;19.40;58.20;;;;;;5065601;28;20052;-35
2021/03/01 05:28:00;;;;;;;2.08;1.02;;;19.40;58.10;;;;;;5065553;28;20052;-35
2021/03/01 05:30:26;;;;;;;1.88;1.17;;;19.40;58.20;;;;;;5073123;28;20060;-35
2021/03/01 05:32:52;;;;;;;1.00;0.80;;;19.40;58.30;;;;;;5065670;28;20544;-35
2021/03/01 05:35:19;;;;;;;1.10;1.00;;;19.40;58.30;;;;;;5045500;28;20038;-39
2021/03/01 05:37:45;;;;;;;1.23;1.13;;;19.30;58.30;;;;;;5045465;28;20083;-35
2021/03/01 05:40:11;;;;;;;1.40;1.05;;;19.30;58.20;;;;;;5046635;28;20084;-35
2021/03/01 05:42:37;;;;;;;1.60;1.27;;;19.30;58.40;;;;;;5061003;28;20774;-35
2021/03/01 05:45:05;;;;;;;2.20;1.30;;;19.30;58.20;;;;;;5063863;28;20033;-35
2021/03/01 05:47:31;;;;;;;1.23;1.08;;;19.30;58.20;;;;;;5065560;28;20029;-35
2021/03/01 05:49:59;;;;;;;1.40;1.08;;;19.30;58.10;;;;;;5063747;28;20056;-35
2021/03/01 05:52:25;;;;;;;2.70;1.40;;;19.30;58.00;;;;;;5065081;28;20025;-35
2021/03/01 05:54:51;;;;;;;1.67;1.20;;;19.30;58.00;;;;;;5046978;28;20080;-36
2021/03/01 05:57:17;;;;;;;1.90;1.42;;;19.30;57.90;;;;;;5065027;28;20055;-35
2021/03/01 05:59:45;;;;;;;1.73;1.25;;;19.30;57.90;;;;;;5066030;28;20051;-35
2021/03/01 06:02:11;;;;;;;2.17;0.90;;;19.20;57.90;;;;;;5055943;28;20037;-34
2021/03/01 06:04:39;;;;;;;1.73;1.30;;;19.20;57.90;;;;;;5047243;28;20093;-35
2021/03/01 06:07:05;;;;;;;2.08;1.40;;;19.20;58.00;;;;;;5053969;28;20053;-35
2021/03/01 06:09:31;;;;;;;2.08;1.17;;;19.20;58.00;;;;;;5064712;28;20021;-35
2021/03/01 06:11:58;;;;;;;1.92;1.42;;;19.20;58.10;;;;;;5064466;28;20041;-35
2021/03/01 06:14:24;;;;;;;1.50;1.30;;;19.20;58.10;;;;;;5064603;28;20508;-34
2021/03/01 06:17:15;;;;;;;1.27;1.10;;;19.20;58.20;;;;;;5064721;28;20036;-35
2021/03/01 06:19:54;;;;;;;1.90;1.10;;;19.20;58.00;;;;;;5064623;28;20033;-35
2021/03/01 06:22:41;;;;;;;2.50;1.17;;;19.10;58.10;;;;;;5031412;28;20064;-35
2021/03/01 06:25:12;;;;;;;2.17;1.40;;;19.10;58.10;;;;;;5064420;28;20029;-35
2021/03/01 06:27:50;;;;;;;2.38;1.40;;;19.10;58.10;;;;;;5046544;28;20033;-35
2021/03/01 06:30:18;;;;;;;1.75;1.05;;;19.10;58.10;;;;;;5078068;28;20032;-35
2021/03/01 06:32:43;;;;;;;;;;;19.10;58.10;;;;;;5089065;28;20024;-35
2021/03/01 06:35:26;;;;;;;1.73;1.27;;;19.00;58.10;;;;;;5078298;28;19909;-35
2021/03/01 06:38:13;;;;;;;1.55;1.27;;;19.00;58.10;;;;;;5069602;28;20056;-35
2021/03/01 06:40:40;;;;;;;2.03;1.55;;;19.10;58.00;;;;;;5045985;28;20028;-35
2021/03/01 06:43:13;;;;;;;1.83;1.20;;;19.00;58.00;;;;;;5063990;28;20060;-35
2021/03/01 06:45:39;;;;;;;1.38;1.08;;;19.00;57.90;;;;;;5064197;28;20086;-35
2021/03/01 06:48:06;;;;;;;0.93;0.80;;;19.00;57.90;;;;;;5064230;28;20562;-35
2021/03/01 06:50:35;;;;;;;1.53;1.10;;;19.00;57.90;;;;;;5068518;28;20032;-35
2021/03/01 06:53:15;;;;;;;2.13;1.20;;;19.00;57.90;;;;;;5103599;28;20289;-35
2021/03/01 06:56:04;;;;;;;1.63;1.30;;;19.00;57.90;;;;;;5104131;28;20039;-35
2021/03/01 06:58:40;;;;;;;1.10;1.00;;;18.90;57.90;;;;;;5104006;28;20492;-35
2021/03/01 07:01:13;;;;;;;1.67;1.30;;;18.90;58.00;;;;;;5090257;28;20035;-35
2021/03/01 07:03:41;;;;;;;1.70;1.38;;;18.90;58.00;;;;;;5073836;28;20057;-34
2021/03/01 07:06:07;;;;;;;2.08;1.40;;;18.90;58.10;;;;;;5063757;28;20033;-35
2021/03/01 07:08:44;;;;;;;1.75;1.20;;;18.90;58.10;;;;;;5045820;28;20043;-35
2021/03/01 07:11:30;;;;;;;1.73;1.10;;;18.90;58.10;;;;;;5063375;28;20049;-35
2021/03/01 07:14:05;;;;;;;1.83;1.20;;;18.90;58.10;;;;;;5060840;28;20032;-35
2021/03/01 07:16:42;;;;;;;1.58;1.20;;;18.90;58.10;;;;;;5087664;28;20052;-35
2021/03/01 07:19:16;;;;;;;1.95;1.30;;;18.80;58.10;;;;;;5083369;28;20102;-35
2021/03/01 07:21:44;;;;;;;1.50;1.40;;;18.90;58.10;;;;;;5066639;28;20034;-35
2021/03/01 07:24:10;;;;;;;0.93;0.82;;;18.80;58.10;;;;;;5082929;28;20020;-35
2021/03/01 07:26:37;;;;;;;1.90;1.13;;;18.80;58.10;;;;;;5082763;28;20025;-35
2021/03/01 07:29:10;;;;;;;1.97;1.00;;;18.80;58.00;;;;;;5083414;28;20060;-34
2021/03/01 07:31:37;;;;;;;1.58;1.20;;;18.80;57.90;;;;;;5076946;28;20040;-35
2021/03/01 07:34:07;;;;;;;1.25;1.13;;;18.80;57.80;;;;;;5052266;28;20056;-35
2021/03/01 07:36:34;;;;;;;2.30;1.40;;;18.80;57.80;;;;;;5076765;28;20055;-35
2021/03/01 07:39:01;;;;;;;1.27;1.13;;;18.80;57.80;;;;;;5063313;28;20080;-35
2021/03/01 07:41:28;;;;;;;1.50;1.20;;;18.70;57.70;;;;;;5062927;28;20029;-35
2021/03/01 07:43:54;;;;;;;1.85;1.20;;;18.80;57.80;;;;;;5062839;28;20577;-35
2021/03/01 07:46:31;;;;;;;2.03;1.27;;;18.70;57.80;;;;;;5045204;28;20155;-35
2021/03/01 07:48:58;;;;;;;0.80;0.75;;;18.80;57.90;;;;;;5063024;28;20056;-40
2021/03/01 07:51:44;;;;;;;1.80;1.27;;;18.70;57.80;;;;;;5045146;28;20046;-35
2021/03/01 07:54:12;;;;;;;1.60;1.30;;;18.70;57.70;;;;;;5062732;28;20021;-35
2021/03/01 07:56:37;;;;;;;;;;;18.70;57.80;;;;;;5063479;28;20047;-35
2021/03/01 07:59:08;;;;;;;1.73;1.00;;;18.70;57.90;;;;;;5062961;28;19904;-35
2021/03/01 08:01:34;;;;;;;1.40;1.27;;;18.70;57.90;;;;;;5092501;28;20040;-35
2021/03/01 08:04:01;;;;;;;1.38;1.05;;;18.70;57.90;;;;;;5070131;28;20029;-35
2021/03/01 08:06:58;;;;;;;2.17;1.48;;;18.70;57.90;;;;;;5062724;28;20049;-35
2021/03/01 08:09:47;;;;;;;1.30;1.17;;;18.70;57.90;;;;;;5062742;28;20033;-35
2021/03/01 08:12:28;;;;;;;1.10;1.00;;;18.60;57.80;;;;;;5062812;28;20036;-35
2021/03/01 08:14:54;;;;;;;2.03;1.10;;;18.60;57.80;;;;;;5062367;28;20052;-35
2021/03/01 08:17:27;;;;;;;2.00;1.40;;;18.60;57.70;;;;;;5062923;28;20106;-35
2021/03/01 08:19:54;;;;;;;1.38;1.20;;;18.60;57.80;;;;;;5062764;28;20040;-35
2021/03/01 08:22:20;;;;;;;1.30;1.10;;;18.70;57.80;;;;;;5062963;28;20021;-35
2021/03/01 08:24:53;;;;;;;1.45;1.10;;;18.60;57.60;;;;;;5062556;28;20025;-35
2021/03/01 08:27:25;;;;;;;1.65;1.17;;;18.60;57.60;;;;;;5062571;28;20029;-35
2021/03/01 08:30:46;;;;;;;1.25;1.10;;;18.60;57.60;;;;;;5069055;28;20035;-34
2021/03/01 08:33:12;;;;;;;;;;;18.60;57.60;;;;;;4982079;28;20023;-35
2021/03/01 08:35:41;;;;;;;2.03;0.95;;;18.60;57.60;;;;;;4981104;28;19917;-35
2021/03/01 08:38:08;;;;;;;1.80;1.30;;;18.60;57.80;;;;;;4981164;28;20038;-35
2021/03/01 08:40:35;;;;;;;1.25;1.08;;;18.60;57.80;;;;;;4984816;28;20221;-36
2021/03/01 08:43:07;;;;;;;1.43;1.13;;;18.60;57.80;;;;;;4968758;28;20062;-34
2021/03/01 08:45:44;;;;;;;1.83;1.20;;;18.60;57.80;;;;;;4976554;28;20055;-35
2021/03/01 08:48:20;;;;;;;1.30;1.20;;;18.60;57.90;;;;;;4966832;28;20063;-35
2021/03/01 08:50:48;;;;;;;1.95;1.30;;;18.60;57.90;;;;;;4984752;28;20050;-35
2021/03/01 08:53:24;;;;;;;1.38;1.20;;;18.60;57.90;;;;;;4984631;28;20129;-35
2021/03/01 08:55:50;;;;;;;2.08;1.20;;;18.60;57.90;;;;;;4984820;28;20035;-34
2021/03/01 08:58:18;;;;;;;2.00;1.17;;;18.60;57.90;;;;;;4984808;28;20106;-35
2021/03/01 09:00:51;;;;;;;2.10;1.20;;;18.60;57.90;;;;;;4979091;28;20842;-35
2021/03/01 09:03:31;;;;;;;1.60;1.17;;;18.60;57.80;;;;;;4984456;28;20085;-35
2021/03/01 09:06:16;;;;;;;1.55;1.20;;;18.60;57.80;;;;;;4984275;28;20062;-35
2021/03/01 09:08:49;;;;;;;2.08;1.25;;;18.60;57.80;;;;;;5066328;28;20103;-35
2021/03/01 09:11:19;;;;;;;1.10;1.00;;;18.60;57.80;;;;;;5065555;28;20037;-36
2021/03/01 09:13:48;;;;;;;1.73;1.40;;;18.60;57.70;;;;;;5084889;28;20028;-35
2021/03/01 09:16:23;;;;;;;1.50;1.40;;;18.60;57.80;;;;;;5086075;28;20120;-35
2021/03/01 09:18:49;;;;;;;1.63;1.10;;;18.60;57.80;;;;;;5085913;28;20024;-35
2021/03/01 09:21:17;;;;;;;1.20;1.00;;;18.60;57.80;;;;;;5085670;28;20039;-35
2021/03/01 09:23:53;;;;;;;1.27;1.10;;;18.60;57.80;;;;;;5088910;28;20050;-35
2021/03/01 09:26:28;;;;;;;1.77;1.05;;;18.60;58.40;;;;;;5085761;28;20023;-35
2021/03/01 09:28:55;;;;;;;1.50;1.17;;;18.60;57.90;;;;;;5085839;28;20036;-35
2021/03/01 09:31:21;;;;;;;1.40;1.10;;;18.60;57.90;;;;;;5097263;28;20036;-35
2021/03/01 09:33:48;;;;;;;1.83;1.10;;;18.60;58.00;;;;;;5085374;28;20088;-35
2021/03/01 09:36:14;;;;;;;1.52;1.13;;;18.60;58.00;;;;;;5051276;28;20051;-35
2021/03/01 09:38:41;;;;;;;1.85;1.05;;;18.60;58.00;;;;;;5079634;28;20029;-35
2021/03/01 09:41:11;;;;;;;2.00;1.13;;;18.50;58.00;;;;;;5076542;28;20028;-35
2021/03/01 09:43:38;;;;;;;1.55;1.10;;;18.60;58.00;;;;;;5085625;28;20296;-35
2021/03/01 09:46:05;;;;;;;1.58;1.27;;;18.50;58.00;;;;;;5085218;28;20024;-35
2021/03/01 09:48:34;;;;;;;1.58;1.17;;;18.60;58.10;;;;;;5067507;28;20044;-35
2021/03/01 09:51:00;;;;;;;1.75;1.40;;;18.60;58.10;;;;;;5066624;28;20505;-35
2021/03/01 09:53:27;;;;;;;2.80;1.50;;;18.60;58.10;;;;;;5067329;28;20031;-35
2021/03/01 09:55:53;;;;;;;1.83;1.25;;;18.50;58.10;;;;;;5050206;28;20059;-35
2021/03/01 09:58:29;;;;;;;2.37;1.27;;;18.60;58.00;;;;;;5085191;28;20040;-34
2021/03/01 10:01:12;;;;;;;1.30;1.20;;;18.60;58.10;;;;;;5097397;28;20260;-35
2021/03/01 10:03:41;;;;;;;1.63;1.20;;;18.60;58.00;;;;;;5095690;28;20024;-35
2021/03/01 10:06:07;;;;;;;1.30;1.10;;;18.60;58.10;;;;;;5084723;28;20024;-35
2021/03/01 10:08:34;;;;;;;1.45;1.10;;;18.60;58.00;;;;;;5085018;28;20025;-35
2021/03/01 10:11:00;;;;;;;2.83;1.20;;;18.60;58.10;;;;;;5084720;28;20040;-35
2021/03/01 10:13:27;;;;;;;1.38;1.20;;;18.60;58.10;;;;;;5085044;28;20051;-35
2021/03/01 10:15:53;;;;;;;;;;;18.60;58.20;;;;;;5085036;28;20028;-35
2021/03/01 10:18:22;;;;;;;1.20;0.90;;;18.60;58.20;;;;;;5084875;28;19931;-35
2021/03/01 10:20:50;;;;;;;1.45;1.10;;;18.50;58.20;;;;;;5084246;28;20028;-35
2021/03/01 10:23:39;;;;;;;1.52;1.10;;;18.60;58.30;;;;;;5083639;28;20028;-35
2021/03/01 10:26:19;;;;;;;1.40;1.30;;;18.50;58.30;;;;;;5084408;28;20449;-35
2021/03/01 10:29:02;;;;;;;1.63;1.13;;;18.60;58.30;;;;;;5084536;28;20117;-35
2021/03/01 10:31:38;;;;;;;2.55;1.13;;;18.50;58.30;;;;;;5096249;28;20071;-35
2021/03/01 10:34:12;;;;;;;2.15;1.30;;;18.60;58.30;;;;;;5084431;28;20021;-35
2021/03/01 10:36:41;;;;;;;1.83;1.30;;;18.60;58.40;;;;;;5074901;28;20044;-35
2021/03/01 10:39:30;;;;;;;2.17;1.15;;;18.60;58.40;;;;;;5082265;28;20016;-35
2021/03/01 10:42:14;;;;;;;1.05;0.95;;;18.60;58.30;;;;;;5084212;28;20084;-36
2021/03/01 10:44:48;;;;;;;2.50;1.23;;;18.60;58.40;;;;;;5084293;28;20070;-35
2021/03/01 10:47:18;;;;;;;1.38;0.90;;;18.60;58.30;;;;;;5084129;28;20024;-35
2021/03/01 10:49:45;;;;;;;1.67;1.08;;;18.60;58.30;;;;;;5094359;28;20386;-35
2021/03/01 10:52:12;;;;;;;1.42;1.23;;;18.60;58.10;;;;;;5104349;28;20029;-35
2021/03/01 10:54:39;;;;;;;2.25;1.08;;;18.60;58.10;;;;;;5104349;28;20032;-35
2021/03/01 10:57:05;;;;;;;1.33;1.05;;;18.60;58.00;;;;;;5103891;28;20046;-36
2021/03/01 10:59:31;;;;;;;2.13;1.03;;;18.60;58.00;;;;;;5085590;28;20039;-35
2021/03/01 11:01:57;;;;;;;1.25;1.05;;;18.60;58.10;;;;;;5083034;28;20024;-35
2021/03/01 11:04:24;;;;;;;1.42;1.05;;;18.60;58.10;;;;;;5067754;28;20044;-35
2021/03/01 11:06:50;;;;;;;1.83;1.30;;;18.60;58.30;;;;;;5063541;28;20041;-35
2021/03/01 11:09:17;;;;;;;1.85;1.13;;;18.60;58.30;;;;;;5045945;28;20055;-35
2021/03/01 11:11:43;;;;;;;2.03;1.37;;;18.60;58.30;;;;;;5070677;28;20058;-35
2021/03/01 11:14:10;;;;;;;1.45;1.20;;;18.60;58.30;;;;;;5083656;28;20340;-34
2021/03/01 11:16:36;;;;;;;1.50;0.98;;;18.60;58.30;;;;;;5083292;28;20060;-34
2021/03/01 11:19:03;;;;;;;2.88;1.25;;;18.60;58.20;;;;;;5065576;28;20082;-34
2021/03/01 11:21:29;;;;;;;2.97;1.70;;;18.60;58.10;;;;;;5083461;28;20062;-35
2021/03/01 11:23:55;;;;;;;1.40;1.30;;;18.70;58.20;;;;;;5083566;28;20635;-35
2021/03/01 11:26:21;;;;;;;1.90;1.10;;;18.70;58.30;;;;;;5083010;28;20095;-35
2021/03/01 11:28:48;;;;;;;1.83;1.30;;;18.60;58.40;;;;;;5089124;28;20030;-35
2021/03/01 11:31:14;;;;;;;1.80;1.10;;;18.60;58.50;;;;;;5088490;28;20036;-34
2021/03/01 11:33:40;;;;;;;2.10;1.10;;;18.60;58.60;;;;;;5065249;28;20108;-35
2021/03/01 11:36:07;;;;;;;1.75;1.10;;;18.60;58.60;;;;;;5083104;28;20021;-35
2021/03/01 11:38:33;;;;;;;1.95;1.20;;;18.70;58.60;;;;;;5083221;28;20033;-35
2021/03/01 11:41:00;;;;;;;1.60;1.08;;;18.70;58.60;;;;;;5064999;28;20056;-35
2021/03/01 11:43:26;;;;;;;1.67;1.35;;;18.70;58.60;;;;;;5083125;28;20033;-35
2021/03/01 11:45:52;;;;;;;2.47;1.17;;;18.70;58.60;;;;;;5076844;28;20032;-35
2021/03/01 11:48:18;;;;;;;2.00;1.45;;;18.70;58.60;;;;;;5083009;28;20036;-35
2021/03/01 11:50:46;;;;;;;2.13;1.45;;;18.70;58.60;;;;;;5082995;28;20032;-34
2021/03/01 11:53:13;;;;;;;1.67;1.23;;;18.70;58.70;;;;;;5083009;28;20033;-35
2021/03/01 11:55:39;;;;;;;3.55;1.45;;;18.70;59.10;;;;;;5065143;28;20119;-35
2021/03/01 11:58:06;;;;;;;1.85;1.27;;;18.70;59.30;;;;;;5082684;28;20036;-35
2021/03/01 12:00:32;;;;;;;1.40;1.08;;;18.70;59.40;;;;;;5082785;28;20024;-35
2021/03/01 12:03:01;;;;;;;1.45;0.93;;;18.70;59.50;;;;;;5065291;28;20041;-36
2021/03/01 12:05:28;;;;;;;1.88;1.08;;;18.70;59.40;;;;;;5044836;28;20021;-35
2021/03/01 12:07:54;;;;;;;1.35;0.90;;;18.70;59.40;;;;;;5062352;28;20096;-34
2021/03/01 12:10:20;;;;;;;2.10;1.08;;;18.70;59.60;;;;;;5062704;28;20036;-35
2021/03/01 12:12:46;;;;;;;1.15;0.88;;;18.70;59.70;;;;;;5064591;28;20029;-34
2021/03/01 12:15:12;;;;;;;2.00;1.00;;;18.70;59.70;;;;;;5069288;28;20112;-34
2021/03/01 12:17:39;;;;;;;1.50;1.10;;;18.60;60.20;;;;;;5069083;28;20055;-34
2021/03/01 12:20:05;;;;;;;2.50;1.17;;;18.70;60.30;;;;;;5069292;28;20024;-34
2021/03/01 12:22:32;;;;;;;1.23;0.95;;;18.70;60.20;;;;;;5069289;28;20033;-35
2021/03/01 12:24:58;;;;;;;1.42;1.00;;;18.60;60.30;;;;;;5069561;28;20032;-34
2021/03/01 12:27:24;;;;;;;1.52;1.17;;;18.60;60.30;;;;;;5068931;28;20040;-35
2021/03/01 12:29:50;;;;;;;1.95;1.00;;;18.60;60.30;;;;;;5075390;28;20062;-35
2021/03/01 12:32:17;;;;;;;2.03;1.17;;;18.60;60.40;;;;;;5097613;28;20032;-34
2021/03/01 12:34:43;;;;;;;1.40;1.02;;;18.60;60.60;;;;;;5088530;28;20032;-35
2021/03/01 12:37:09;;;;;;;2.15;1.05;;;18.70;60.70;;;;;;5077108;28;20025;-35
2021/03/01 12:39:36;;;;;;;1.55;1.00;;;18.60;60.80;;;;;;5089236;28;20046;-34
2021/03/01 12:42:03;;;;;;;1.55;1.08;;;18.60;61.10;;;;;;5089112;28;20040;-34
2021/03/01 12:44:29;;;;;;;2.15;1.00;;;18.60;61.10;;;;;;5082427;28;20032;-35
2021/03/01 12:46:55;;;;;;;1.52;0.90;;;18.60;61.10;;;;;;5068746;28;20086;-35
2021/03/01 12:49:22;;;;;;;1.45;0.95;;;18.60;61.20;;;;;;5069067;28;20375;-35
2021/03/01 12:51:49;;;;;;;1.10;1.00;;;18.60;61.30;;;;;;5068797;28;20044;-35
2021/03/01 12:54:15;;;;;;;1.42;1.00;;;18.60;61.10;;;;;;5092223;28;20099;-34
2021/03/01 12:56:41;;;;;;;1.77;0.90;;;18.60;61.00;;;;;;5088826;28;20240;-34
2021/03/01 12:59:08;;;;;;;1.10;0.90;;;18.60;60.90;;;;;;5088865;28;20029;-34